sensor_id;sensor_type;location;lat;lon;timestamp;temperature;humidity
27671;DHT22;15077;49.704;9.908;2022-10-13T00:00:37;15.80;60.80
27671;DHT22;15077;49.704;9.908;2022-10-13T00:03:04;15.80;60.80
27671;DHT22;15077;49.704;9.908;2022-10-13T00:05:29;15.80;60.90
27671;DHT22;15077;49.704;9.908;2022-10-13T00:07:56;15.80;60.90
27671;DHT22;15077;49.704;9.908;2022-10-13T00:10:22;15.70;60.90
27671;DHT22;15077;49.704;9.908;2022-10-13T00:12:49;15.80;61.00
27671;DHT22;15077;49.704;9.908;2022-10-13T00:15:15;15.80;61.00
27671;DHT22;15077;49.704;9.908;2022-10-13T00:17:40;15.80;61.00
27671;DHT22;15077;49.704;9.908;2022-10-13T00:20:07;15.70;61.00
27671;DHT22;15077;49.704;9.908;2022-10-13T00:22:34;15.70;61.00
27671;DHT22;15077;49.704;9.908;2022-10-13T00:24:59;15.80;61.10
27671;DHT22;15077;49.704;9.908;2022-10-13T00:27:25;15.70;61.10
27671;DHT22;15077;49.704;9.908;2022-10-13T00:29:51;15.70;61.10
27671;DHT22;15077;49.704;9.908;2022-10-13T00:32:16;15.80;61.20
27671;DHT22;15077;49.704;9.908;2022-10-13T00:34:42;15.80;61.80
27671;DHT22;15077;49.704;9.908;2022-10-13T00:37:08;15.80;61.20
27671;DHT22;15077;49.704;9.908;2022-10-13T00:39:35;15.80;61.10
27671;DHT22;15077;49.704;9.908;2022-10-13T00:42:01;15.80;61.10
27671;DHT22;15077;49.704;9.908;2022-10-13T00:47:18;15.80;61.40
27671;DHT22;15077;49.704;9.908;2022-10-13T00:49:45;15.80;61.40
27671;DHT22;15077;49.704;9.908;2022-10-13T00:52:13;15.80;61.30
27671;DHT22;15077;49.704;9.908;2022-10-13T00:54:40;15.80;61.40
27671;DHT22;15077;49.704;9.908;2022-10-13T00:57:06;15.80;61.40
27671;DHT22;15077;49.704;9.908;2022-10-13T00:59:33;15.80;61.50
27671;DHT22;15077;49.704;9.908;2022-10-13T01:02:01;15.80;62.00
27671;DHT22;15077;49.704;9.908;2022-10-13T01:04:33;15.80;62.40
27671;DHT22;15077;49.704;9.908;2022-10-13T01:07:03;15.70;62.20
27671;DHT22;15077;49.704;9.908;2022-10-13T01:09:29;15.70;62.40
27671;DHT22;15077;49.704;9.908;2022-10-13T01:21:01;15.70;62.60
27671;DHT22;15077;49.704;9.908;2022-10-13T01:36:55;15.60;62.50
27671;DHT22;15077;49.704;9.908;2022-10-13T01:39:34;15.50;62.40
27671;DHT22;15077;49.704;9.908;2022-10-13T01:42:14;15.50;62.60
27671;DHT22;15077;49.704;9.908;2022-10-13T01:44:45;15.50;62.60
27671;DHT22;15077;49.704;9.908;2022-10-13T01:47:15;15.50;62.60
27671;DHT22;15077;49.704;9.908;2022-10-13T01:49:43;15.40;62.50
27671;DHT22;15077;49.704;9.908;2022-10-13T01:52:11;15.40;62.40
27671;DHT22;15077;49.704;9.908;2022-10-13T01:54:40;15.40;62.40
27671;DHT22;15077;49.704;9.908;2022-10-13T01:57:25;15.40;62.30
27671;DHT22;15077;49.704;9.908;2022-10-13T01:59:55;15.30;62.20
27671;DHT22;15077;49.704;9.908;2022-10-13T02:02:30;15.30;62.20
27671;DHT22;15077;49.704;9.908;2022-10-13T02:10:08;15.20;62.10
27671;DHT22;15077;49.704;9.908;2022-10-13T02:13:04;15.20;62.30
27671;DHT22;15077;49.704;9.908;2022-10-13T02:15:50;15.10;62.30
27671;DHT22;15077;49.704;9.908;2022-10-13T02:18:20;15.10;62.50
27671;DHT22;15077;49.704;9.908;2022-10-13T02:20:49;15.00;62.80
27671;DHT22;15077;49.704;9.908;2022-10-13T02:23:16;15.00;62.70
27671;DHT22;15077;49.704;9.908;2022-10-13T02:25:43;14.90;62.80
27671;DHT22;15077;49.704;9.908;2022-10-13T02:28:10;14.90;62.90
27671;DHT22;15077;49.704;9.908;2022-10-13T02:30:38;14.90;63.00
27671;DHT22;15077;49.704;9.908;2022-10-13T02:33:05;14.80;63.10
27671;DHT22;15077;49.704;9.908;2022-10-13T02:35:31;14.80;63.40
27671;DHT22;15077;49.704;9.908;2022-10-13T02:37:57;14.80;63.90
27671;DHT22;15077;49.704;9.908;2022-10-13T02:40:24;14.80;64.30
27671;DHT22;15077;49.704;9.908;2022-10-13T02:42:50;14.80;64.20
27671;DHT22;15077;49.704;9.908;2022-10-13T02:45:16;14.70;64.20
27671;DHT22;15077;49.704;9.908;2022-10-13T02:47:42;14.70;64.20
27671;DHT22;15077;49.704;9.908;2022-10-13T02:50:07;14.70;65.00
27671;DHT22;15077;49.704;9.908;2022-10-13T02:52:33;14.60;65.00
27671;DHT22;15077;49.704;9.908;2022-10-13T02:54:59;14.60;64.50
27671;DHT22;15077;49.704;9.908;2022-10-13T02:57:25;14.60;64.80
27671;DHT22;15077;49.704;9.908;2022-10-13T02:59:50;14.60;64.90
27671;DHT22;15077;49.704;9.908;2022-10-13T03:02:16;14.60;64.70
27671;DHT22;15077;49.704;9.908;2022-10-13T03:04:42;14.60;64.80
27671;DHT22;15077;49.704;9.908;2022-10-13T03:07:08;14.60;64.80
27671;DHT22;15077;49.704;9.908;2022-10-13T03:09:34;14.60;64.60
27671;DHT22;15077;49.704;9.908;2022-10-13T03:12:00;14.60;64.70
27671;DHT22;15077;49.704;9.908;2022-10-13T03:14:26;14.60;64.60
27671;DHT22;15077;49.704;9.908;2022-10-13T03:16:52;14.60;64.50
27671;DHT22;15077;49.704;9.908;2022-10-13T03:19:17;14.60;64.40
27671;DHT22;15077;49.704;9.908;2022-10-13T03:21:43;14.60;64.40
27671;DHT22;15077;49.704;9.908;2022-10-13T03:24:09;14.70;64.30
27671;DHT22;15077;49.704;9.908;2022-10-13T03:26:34;14.70;64.50
27671;DHT22;15077;49.704;9.908;2022-10-13T03:29:00;14.70;64.50
27671;DHT22;15077;49.704;9.908;2022-10-13T03:31:26;14.70;64.60
27671;DHT22;15077;49.704;9.908;2022-10-13T03:33:52;14.70;64.60
27671;DHT22;15077;49.704;9.908;2022-10-13T03:36:18;14.70;64.40
27671;DHT22;15077;49.704;9.908;2022-10-13T03:38:44;14.70;64.40
27671;DHT22;15077;49.704;9.908;2022-10-13T03:41:14;14.70;64.40
27671;DHT22;15077;49.704;9.908;2022-10-13T03:43:41;14.70;64.50
27671;DHT22;15077;49.704;9.908;2022-10-13T03:46:09;14.70;64.60
27671;DHT22;15077;49.704;9.908;2022-10-13T03:48:37;14.80;64.60
27671;DHT22;15077;49.704;9.908;2022-10-13T03:51:03;14.80;64.60
27671;DHT22;15077;49.704;9.908;2022-10-13T03:53:33;14.80;64.50
27671;DHT22;15077;49.704;9.908;2022-10-13T03:55:59;14.80;64.50
27671;DHT22;15077;49.704;9.908;2022-10-13T03:58:25;14.80;64.50
27671;DHT22;15077;49.704;9.908;2022-10-13T04:00:52;14.80;64.50
27671;DHT22;15077;49.704;9.908;2022-10-13T04:03:18;14.80;64.50
27671;DHT22;15077;49.704;9.908;2022-10-13T04:05:44;14.80;64.80
27671;DHT22;15077;49.704;9.908;2022-10-13T04:08:11;14.80;64.60
27671;DHT22;15077;49.704;9.908;2022-10-13T04:10:37;14.80;64.60
27671;DHT22;15077;49.704;9.908;2022-10-13T04:13:03;14.80;64.80
27671;DHT22;15077;49.704;9.908;2022-10-13T04:15:28;14.70;64.80
27671;DHT22;15077;49.704;9.908;2022-10-13T04:17:54;14.70;64.70
27671;DHT22;15077;49.704;9.908;2022-10-13T04:20:20;14.70;64.80
27671;DHT22;15077;49.704;9.908;2022-10-13T04:22:45;14.70;64.80
27671;DHT22;15077;49.704;9.908;2022-10-13T04:25:11;14.70;65.00
27671;DHT22;15077;49.704;9.908;2022-10-13T04:27:37;14.70;65.00
27671;DHT22;15077;49.704;9.908;2022-10-13T04:30:06;14.70;65.00
27671;DHT22;15077;49.704;9.908;2022-10-13T04:32:33;14.70;65.20
27671;DHT22;15077;49.704;9.908;2022-10-13T04:34:58;14.70;65.20
27671;DHT22;15077;49.704;9.908;2022-10-13T04:37:24;14.70;65.20
27671;DHT22;15077;49.704;9.908;2022-10-13T04:39:49;14.70;65.40
27671;DHT22;15077;49.704;9.908;2022-10-13T04:42:15;14.70;65.30
27671;DHT22;15077;49.704;9.908;2022-10-13T04:44:41;14.70;65.70
27671;DHT22;15077;49.704;9.908;2022-10-13T04:47:06;14.70;65.70
27671;DHT22;15077;49.704;9.908;2022-10-13T04:49:32;14.70;65.50
27671;DHT22;15077;49.704;9.908;2022-10-13T04:51:58;14.70;66.00
27671;DHT22;15077;49.704;9.908;2022-10-13T04:54:24;14.70;65.80
27671;DHT22;15077;49.704;9.908;2022-10-13T04:56:50;14.60;65.70
27671;DHT22;15077;49.704;9.908;2022-10-13T04:59:15;14.60;65.70
27671;DHT22;15077;49.704;9.908;2022-10-13T05:01:41;14.60;65.70
27671;DHT22;15077;49.704;9.908;2022-10-13T05:04:08;14.60;66.20
27671;DHT22;15077;49.704;9.908;2022-10-13T05:06:35;14.60;66.30
27671;DHT22;15077;49.704;9.908;2022-10-13T05:09:02;14.60;66.20
27671;DHT22;15077;49.704;9.908;2022-10-13T05:11:28;14.60;66.30
27671;DHT22;15077;49.704;9.908;2022-10-13T05:13:55;14.60;66.30
27671;DHT22;15077;49.704;9.908;2022-10-13T05:16:22;14.60;66.50
27671;DHT22;15077;49.704;9.908;2022-10-13T05:18:48;14.60;66.80
27671;DHT22;15077;49.704;9.908;2022-10-13T05:21:15;14.60;66.70
27671;DHT22;15077;49.704;9.908;2022-10-13T05:23:43;14.60;66.70
27671;DHT22;15077;49.704;9.908;2022-10-13T05:26:11;14.60;66.50
27671;DHT22;15077;49.704;9.908;2022-10-13T05:28:39;14.60;66.70
27671;DHT22;15077;49.704;9.908;2022-10-13T05:31:38;14.60;66.70
27671;DHT22;15077;49.704;9.908;2022-10-13T05:33:58;14.60;66.70
27671;DHT22;15077;49.704;9.908;2022-10-13T05:36:25;14.60;66.60
27671;DHT22;15077;49.704;9.908;2022-10-13T05:38:55;14.60;66.70
27671;DHT22;15077;49.704;9.908;2022-10-13T05:41:22;14.70;66.80
27671;DHT22;15077;49.704;9.908;2022-10-13T05:43:50;14.70;67.40
27671;DHT22;15077;49.704;9.908;2022-10-13T05:46:21;14.70;66.60
27671;DHT22;15077;49.704;9.908;2022-10-13T05:48:48;14.70;66.60
27671;DHT22;15077;49.704;9.908;2022-10-13T05:51:16;14.70;66.50
27671;DHT22;15077;49.704;9.908;2022-10-13T05:53:46;14.70;66.50
27671;DHT22;15077;49.704;9.908;2022-10-13T05:56:19;14.80;66.60
27671;DHT22;15077;49.704;9.908;2022-10-13T05:58:49;14.80;66.60
27671;DHT22;15077;49.704;9.908;2022-10-13T06:01:20;14.80;66.50
27671;DHT22;15077;49.704;9.908;2022-10-13T06:03:48;14.80;66.50
27671;DHT22;15077;49.704;9.908;2022-10-13T06:06:20;14.80;66.50
27671;DHT22;15077;49.704;9.908;2022-10-13T06:08:48;14.80;66.50
27671;DHT22;15077;49.704;9.908;2022-10-13T06:11:15;14.90;66.70
27671;DHT22;15077;49.704;9.908;2022-10-13T06:13:40;14.90;66.80
27671;DHT22;15077;49.704;9.908;2022-10-13T06:16:06;14.90;66.80
27671;DHT22;15077;49.704;9.908;2022-10-13T06:18:32;14.90;67.00
27671;DHT22;15077;49.704;9.908;2022-10-13T06:20:57;14.90;66.90
27671;DHT22;15077;49.704;9.908;2022-10-13T06:23:23;14.90;66.80
27671;DHT22;15077;49.704;9.908;2022-10-13T06:25:49;14.90;66.80
27671;DHT22;15077;49.704;9.908;2022-10-13T06:28:16;14.90;66.70
27671;DHT22;15077;49.704;9.908;2022-10-13T06:30:46;15.00;66.80
27671;DHT22;15077;49.704;9.908;2022-10-13T06:33:17;15.00;66.60
27671;DHT22;15077;49.704;9.908;2022-10-13T06:35:43;15.00;66.70
27671;DHT22;15077;49.704;9.908;2022-10-13T06:38:09;15.00;66.60
27671;DHT22;15077;49.704;9.908;2022-10-13T06:40:35;15.00;66.70
27671;DHT22;15077;49.704;9.908;2022-10-13T06:43:00;15.10;66.60
27671;DHT22;15077;49.704;9.908;2022-10-13T06:45:26;15.10;66.70
27671;DHT22;15077;49.704;9.908;2022-10-13T06:47:52;15.10;66.60
27671;DHT22;15077;49.704;9.908;2022-10-13T06:50:19;15.10;66.70
27671;DHT22;15077;49.704;9.908;2022-10-13T06:52:45;15.10;66.60
27671;DHT22;15077;49.704;9.908;2022-10-13T06:55:11;15.20;66.60
27671;DHT22;15077;49.704;9.908;2022-10-13T06:57:36;15.20;66.70
27671;DHT22;15077;49.704;9.908;2022-10-13T07:00:03;15.20;67.30
27671;DHT22;15077;49.704;9.908;2022-10-13T07:02:29;15.20;66.90
27671;DHT22;15077;49.704;9.908;2022-10-13T07:04:55;15.20;66.80
27671;DHT22;15077;49.704;9.908;2022-10-13T07:07:20;15.30;67.00
27671;DHT22;15077;49.704;9.908;2022-10-13T07:09:46;15.30;67.00
27671;DHT22;15077;49.704;9.908;2022-10-13T07:12:12;15.30;66.90
27671;DHT22;15077;49.704;9.908;2022-10-13T07:14:38;15.30;67.20
27671;DHT22;15077;49.704;9.908;2022-10-13T07:17:04;15.30;67.10
27671;DHT22;15077;49.704;9.908;2022-10-13T07:19:29;15.40;66.90
27671;DHT22;15077;49.704;9.908;2022-10-13T07:21:55;15.40;66.90
27671;DHT22;15077;49.704;9.908;2022-10-13T07:24:21;15.40;67.10
27671;DHT22;15077;49.704;9.908;2022-10-13T07:26:47;15.40;67.60
27671;DHT22;15077;49.704;9.908;2022-10-13T07:29:13;15.40;67.30
27671;DHT22;15077;49.704;9.908;2022-10-13T07:31:40;15.40;67.40
27671;DHT22;15077;49.704;9.908;2022-10-13T07:34:07;15.40;67.30
27671;DHT22;15077;49.704;9.908;2022-10-13T07:36:33;15.50;67.50
27671;DHT22;15077;49.704;9.908;2022-10-13T07:39:00;15.50;67.50
27671;DHT22;15077;49.704;9.908;2022-10-13T07:41:27;15.50;67.60
27671;DHT22;15077;49.704;9.908;2022-10-13T07:43:57;15.50;67.90
27671;DHT22;15077;49.704;9.908;2022-10-13T07:46:22;15.60;68.50
27671;DHT22;15077;49.704;9.908;2022-10-13T07:48:53;15.60;68.30
27671;DHT22;15077;49.704;9.908;2022-10-13T07:51:19;15.60;68.20
27671;DHT22;15077;49.704;9.908;2022-10-13T07:53:46;15.60;68.10
27671;DHT22;15077;49.704;9.908;2022-10-13T07:56:13;15.60;68.50
27671;DHT22;15077;49.704;9.908;2022-10-13T07:58:40;15.70;68.40
27671;DHT22;15077;49.704;9.908;2022-10-13T08:01:08;15.70;68.30
27671;DHT22;15077;49.704;9.908;2022-10-13T08:03:34;15.80;68.10
27671;DHT22;15077;49.704;9.908;2022-10-13T08:06:01;15.80;68.00
27671;DHT22;15077;49.704;9.908;2022-10-13T08:08:28;15.90;68.50
27671;DHT22;15077;49.704;9.908;2022-10-13T08:10:54;15.90;68.10
27671;DHT22;15077;49.704;9.908;2022-10-13T08:13:25;15.90;68.20
27671;DHT22;15077;49.704;9.908;2022-10-13T08:15:51;15.90;68.10
27671;DHT22;15077;49.704;9.908;2022-10-13T08:18:18;16.00;68.50
27671;DHT22;15077;49.704;9.908;2022-10-13T08:20:44;16.00;68.20
27671;DHT22;15077;49.704;9.908;2022-10-13T08:23:11;16.00;68.10
27671;DHT22;15077;49.704;9.908;2022-10-13T08:25:37;16.10;68.20
27671;DHT22;15077;49.704;9.908;2022-10-13T08:28:05;16.10;68.10
27671;DHT22;15077;49.704;9.908;2022-10-13T08:30:31;16.10;68.10
27671;DHT22;15077;49.704;9.908;2022-10-13T08:32:57;16.20;68.30
27671;DHT22;15077;49.704;9.908;2022-10-13T08:35:23;16.20;68.50
27671;DHT22;15077;49.704;9.908;2022-10-13T08:37:48;16.20;68.20
27671;DHT22;15077;49.704;9.908;2022-10-13T08:40:15;16.30;68.10
27671;DHT22;15077;49.704;9.908;2022-10-13T08:42:43;16.30;68.50
27671;DHT22;15077;49.704;9.908;2022-10-13T08:45:14;16.30;68.40
27671;DHT22;15077;49.704;9.908;2022-10-13T08:47:53;16.40;68.60
27671;DHT22;15077;49.704;9.908;2022-10-13T08:50:26;16.40;68.30
27671;DHT22;15077;49.704;9.908;2022-10-13T08:55:47;16.60;68.50
27671;DHT22;15077;49.704;9.908;2022-10-13T09:01:12;16.80;68.30
27671;DHT22;15077;49.704;9.908;2022-10-13T09:06:32;16.90;67.90
27671;DHT22;15077;49.704;9.908;2022-10-13T09:09:12;17.00;68.20
27671;DHT22;15077;49.704;9.908;2022-10-13T09:11:41;17.10;68.10
27671;DHT22;15077;49.704;9.908;2022-10-13T09:14:21;17.10;67.90
27671;DHT22;15077;49.704;9.908;2022-10-13T09:16:49;17.10;67.90
27671;DHT22;15077;49.704;9.908;2022-10-13T09:19:29;17.20;68.00
27671;DHT22;15077;49.704;9.908;2022-10-13T09:27:46;17.40;68.10
27671;DHT22;15077;49.704;9.908;2022-10-13T09:33:36;17.70;68.50
27671;DHT22;15077;49.704;9.908;2022-10-13T09:38:25;18.00;68.30
27671;DHT22;15077;49.704;9.908;2022-10-13T09:40:56;18.20;68.00
27671;DHT22;15077;49.704;9.908;2022-10-13T09:43:30;18.30;67.70
27671;DHT22;15077;49.704;9.908;2022-10-13T09:45:58;18.40;67.40
27671;DHT22;15077;49.704;9.908;2022-10-13T09:48:26;18.50;67.10
27671;DHT22;15077;49.704;9.908;2022-10-13T09:50:55;18.60;67.20
27671;DHT22;15077;49.704;9.908;2022-10-13T09:56:06;18.80;67.70
27671;DHT22;15077;49.704;9.908;2022-10-13T09:58:35;19.00;66.80
27671;DHT22;15077;49.704;9.908;2022-10-13T10:01:04;19.10;66.80
27671;DHT22;15077;49.704;9.908;2022-10-13T10:03:31;19.30;66.90
27671;DHT22;15077;49.704;9.908;2022-10-13T10:06:02;19.40;66.80
27671;DHT22;15077;49.704;9.908;2022-10-13T10:08:42;19.50;66.70
27671;DHT22;15077;49.704;9.908;2022-10-13T10:11:15;19.60;66.70
27671;DHT22;15077;49.704;9.908;2022-10-13T10:13:43;19.80;66.50
27671;DHT22;15077;49.704;9.908;2022-10-13T10:16:19;19.80;66.30
27671;DHT22;15077;49.704;9.908;2022-10-13T10:27:29;20.00;65.20
27671;DHT22;15077;49.704;9.908;2022-10-13T10:32:35;20.00;64.10
27671;DHT22;15077;49.704;9.908;2022-10-13T10:35:10;20.00;64.20
27671;DHT22;15077;49.704;9.908;2022-10-13T10:37:45;20.00;64.10
27671;DHT22;15077;49.704;9.908;2022-10-13T10:40:21;20.00;64.00
27671;DHT22;15077;49.704;9.908;2022-10-13T10:45:43;19.90;63.00
27671;DHT22;15077;49.704;9.908;2022-10-13T10:50:37;19.90;63.00
27671;DHT22;15077;49.704;9.908;2022-10-13T10:53:05;19.80;63.20
27671;DHT22;15077;49.704;9.908;2022-10-13T10:58:48;19.80;63.60
27671;DHT22;15077;49.704;9.908;2022-10-13T11:01:37;19.80;63.60
27671;DHT22;15077;49.704;9.908;2022-10-13T11:06:45;19.70;63.20
27671;DHT22;15077;49.704;9.908;2022-10-13T11:09:11;19.70;63.30
27671;DHT22;15077;49.704;9.908;2022-10-13T11:11:38;19.70;63.20
27671;DHT22;15077;49.704;9.908;2022-10-13T11:16:40;19.70;63.20
27671;DHT22;15077;49.704;9.908;2022-10-13T11:19:27;19.70;63.20
27671;DHT22;15077;49.704;9.908;2022-10-13T11:40:23;19.60;63.40
27671;DHT22;15077;49.704;9.908;2022-10-13T11:56:54;19.70;63.30
27671;DHT22;15077;49.704;9.908;2022-10-13T11:59:32;19.70;62.70
27671;DHT22;15077;49.704;9.908;2022-10-13T12:02:12;19.70;63.10
27671;DHT22;15077;49.704;9.908;2022-10-13T12:04:43;19.70;63.20
27671;DHT22;15077;49.704;9.908;2022-10-13T12:07:10;19.60;63.10
27671;DHT22;15077;49.704;9.908;2022-10-13T12:09:46;19.60;63.00
27671;DHT22;15077;49.704;9.908;2022-10-13T12:12:14;19.60;63.10
27671;DHT22;15077;49.704;9.908;2022-10-13T12:14:42;19.70;63.50
27671;DHT22;15077;49.704;9.908;2022-10-13T12:17:32;19.60;63.60
27671;DHT22;15077;49.704;9.908;2022-10-13T12:20:18;19.70;63.70
27671;DHT22;15077;49.704;9.908;2022-10-13T12:22:49;19.70;64.40
27671;DHT22;15077;49.704;9.908;2022-10-13T12:25:16;19.80;63.80
27671;DHT22;15077;49.704;9.908;2022-10-13T12:27:48;19.80;63.80
27671;DHT22;15077;49.704;9.908;2022-10-13T12:30:27;19.90;63.70
27671;DHT22;15077;49.704;9.908;2022-10-13T12:33:00;19.90;63.60
27671;DHT22;15077;49.704;9.908;2022-10-13T12:35:29;19.90;63.60
27671;DHT22;15077;49.704;9.908;2022-10-13T12:37:59;19.90;63.60
27671;DHT22;15077;49.704;9.908;2022-10-13T12:40:26;20.00;63.40
27671;DHT22;15077;49.704;9.908;2022-10-13T12:42:53;19.90;63.20
27671;DHT22;15077;49.704;9.908;2022-10-13T12:45:20;20.00;63.20
27671;DHT22;15077;49.704;9.908;2022-10-13T12:47:49;20.00;63.30
27671;DHT22;15077;49.704;9.908;2022-10-13T12:52:53;19.90;63.40
27671;DHT22;15077;49.704;9.908;2022-10-13T12:55:21;19.90;63.50
27671;DHT22;15077;49.704;9.908;2022-10-13T12:57:48;19.90;63.60
27671;DHT22;15077;49.704;9.908;2022-10-13T13:02:52;19.90;63.80
27671;DHT22;15077;49.704;9.908;2022-10-13T13:05:41;19.90;63.90
27671;DHT22;15077;49.704;9.908;2022-10-13T13:08:24;19.90;64.00
27671;DHT22;15077;49.704;9.908;2022-10-13T13:10:54;19.90;63.90
27671;DHT22;15077;49.704;9.908;2022-10-13T13:13:21;19.90;63.80
27671;DHT22;15077;49.704;9.908;2022-10-13T13:15:48;19.90;63.80
27671;DHT22;15077;49.704;9.908;2022-10-13T13:18:28;19.90;63.80
27671;DHT22;15077;49.704;9.908;2022-10-13T13:20:56;19.90;63.80
27671;DHT22;15077;49.704;9.908;2022-10-13T13:23:22;19.80;63.80
27671;DHT22;15077;49.704;9.908;2022-10-13T13:28:39;19.80;63.70
27671;DHT22;15077;49.704;9.908;2022-10-13T13:31:10;19.80;63.80
27671;DHT22;15077;49.704;9.908;2022-10-13T13:33:37;19.80;63.80
27671;DHT22;15077;49.704;9.908;2022-10-13T13:36:03;19.70;63.80
27671;DHT22;15077;49.704;9.908;2022-10-13T13:38:34;19.70;63.80
27671;DHT22;15077;49.704;9.908;2022-10-13T13:41:00;19.70;63.80
27671;DHT22;15077;49.704;9.908;2022-10-13T13:43:26;19.70;63.80
27671;DHT22;15077;49.704;9.908;2022-10-13T13:45:51;19.70;63.80
27671;DHT22;15077;49.704;9.908;2022-10-13T13:48:17;19.70;63.90
27671;DHT22;15077;49.704;9.908;2022-10-13T13:50:43;19.70;63.80
27671;DHT22;15077;49.704;9.908;2022-10-13T13:53:08;19.70;63.80
27671;DHT22;15077;49.704;9.908;2022-10-13T13:55:34;19.60;63.80
27671;DHT22;15077;49.704;9.908;2022-10-13T13:58:00;19.60;63.80
27671;DHT22;15077;49.704;9.908;2022-10-13T14:00:25;19.60;63.80
27671;DHT22;15077;49.704;9.908;2022-10-13T14:02:51;19.60;63.80
27671;DHT22;15077;49.704;9.908;2022-10-13T14:05:17;19.60;63.80
27671;DHT22;15077;49.704;9.908;2022-10-13T14:07:42;19.60;63.80
27671;DHT22;15077;49.704;9.908;2022-10-13T14:10:09;19.60;63.80
27671;DHT22;15077;49.704;9.908;2022-10-13T14:12:35;19.60;63.80
27671;DHT22;15077;49.704;9.908;2022-10-13T14:15:00;19.60;63.80
27671;DHT22;15077;49.704;9.908;2022-10-13T14:17:27;19.50;63.90
27671;DHT22;15077;49.704;9.908;2022-10-13T14:19:53;19.50;63.90
27671;DHT22;15077;49.704;9.908;2022-10-13T14:22:19;19.50;64.00
27671;DHT22;15077;49.704;9.908;2022-10-13T14:24:45;19.50;63.80
27671;DHT22;15077;49.704;9.908;2022-10-13T14:27:10;19.50;63.90
27671;DHT22;15077;49.704;9.908;2022-10-13T14:29:36;19.50;64.00
27671;DHT22;15077;49.704;9.908;2022-10-13T14:32:02;19.50;63.90
27671;DHT22;15077;49.704;9.908;2022-10-13T14:34:28;19.50;64.00
27671;DHT22;15077;49.704;9.908;2022-10-13T14:36:53;19.50;64.00
27671;DHT22;15077;49.704;9.908;2022-10-13T14:39:19;19.50;64.00
27671;DHT22;15077;49.704;9.908;2022-10-13T14:41:44;19.50;64.10
27671;DHT22;15077;49.704;9.908;2022-10-13T14:44:11;19.50;64.10
27671;DHT22;15077;49.704;9.908;2022-10-13T14:46:38;19.50;64.20
27671;DHT22;15077;49.704;9.908;2022-10-13T14:49:04;19.50;64.20
27671;DHT22;15077;49.704;9.908;2022-10-13T14:51:30;19.50;64.20
27671;DHT22;15077;49.704;9.908;2022-10-13T14:53:56;19.50;64.20
27671;DHT22;15077;49.704;9.908;2022-10-13T14:56:25;19.50;64.20
27671;DHT22;15077;49.704;9.908;2022-10-13T14:58:55;19.50;64.10
27671;DHT22;15077;49.704;9.908;2022-10-13T15:01:22;19.50;64.10
27671;DHT22;15077;49.704;9.908;2022-10-13T15:03:47;19.50;64.20
27671;DHT22;15077;49.704;9.908;2022-10-13T15:06:15;19.50;64.20
27671;DHT22;15077;49.704;9.908;2022-10-13T15:08:42;19.50;64.20
27671;DHT22;15077;49.704;9.908;2022-10-13T15:11:08;19.50;64.20
27671;DHT22;15077;49.704;9.908;2022-10-13T15:13:34;19.50;64.20
27671;DHT22;15077;49.704;9.908;2022-10-13T15:16:00;19.50;64.20
27671;DHT22;15077;49.704;9.908;2022-10-13T15:18:31;19.50;64.30
27671;DHT22;15077;49.704;9.908;2022-10-13T15:20:59;19.50;64.20
27671;DHT22;15077;49.704;9.908;2022-10-13T15:23:25;19.50;64.30
27671;DHT22;15077;49.704;9.908;2022-10-13T15:25:51;19.50;64.30
27671;DHT22;15077;49.704;9.908;2022-10-13T15:28:20;19.50;64.40
27671;DHT22;15077;49.704;9.908;2022-10-13T15:30:49;19.50;64.30
27671;DHT22;15077;49.704;9.908;2022-10-13T15:33:16;19.50;64.30
27671;DHT22;15077;49.704;9.908;2022-10-13T15:35:42;19.50;64.20
27671;DHT22;15077;49.704;9.908;2022-10-13T15:38:07;19.50;64.20
27671;DHT22;15077;49.704;9.908;2022-10-13T15:40:37;19.50;64.20
27671;DHT22;15077;49.704;9.908;2022-10-13T15:43:04;19.50;64.20
27671;DHT22;15077;49.704;9.908;2022-10-13T15:45:30;19.50;64.10
27671;DHT22;15077;49.704;9.908;2022-10-13T15:47:56;19.50;64.10
27671;DHT22;15077;49.704;9.908;2022-10-13T15:50:25;19.60;64.10
27671;DHT22;15077;49.704;9.908;2022-10-13T15:52:51;19.60;64.00
27671;DHT22;15077;49.704;9.908;2022-10-13T15:55:16;19.60;64.00
27671;DHT22;15077;49.704;9.908;2022-10-13T15:57:42;19.60;64.00
27671;DHT22;15077;49.704;9.908;2022-10-13T16:00:10;19.60;64.00
27671;DHT22;15077;49.704;9.908;2022-10-13T16:02:38;19.60;64.00
27671;DHT22;15077;49.704;9.908;2022-10-13T16:05:05;19.60;64.00
27671;DHT22;15077;49.704;9.908;2022-10-13T16:07:32;19.60;64.00
27671;DHT22;15077;49.704;9.908;2022-10-13T16:09:59;19.60;63.90
27671;DHT22;15077;49.704;9.908;2022-10-13T16:12:26;19.60;64.00
27671;DHT22;15077;49.704;9.908;2022-10-13T16:14:52;19.60;64.00
27671;DHT22;15077;49.704;9.908;2022-10-13T16:17:18;19.60;64.00
27671;DHT22;15077;49.704;9.908;2022-10-13T16:19:44;19.60;63.90
27671;DHT22;15077;49.704;9.908;2022-10-13T16:22:09;19.60;64.00
27671;DHT22;15077;49.704;9.908;2022-10-13T16:24:35;19.60;64.00
27671;DHT22;15077;49.704;9.908;2022-10-13T16:27:01;19.60;64.00
27671;DHT22;15077;49.704;9.908;2022-10-13T16:29:27;19.60;64.00
27671;DHT22;15077;49.704;9.908;2022-10-13T16:31:52;19.60;64.10
27671;DHT22;15077;49.704;9.908;2022-10-13T16:34:18;19.50;64.10
27671;DHT22;15077;49.704;9.908;2022-10-13T16:36:44;19.50;64.10
27671;DHT22;15077;49.704;9.908;2022-10-13T16:39:10;19.50;64.30
27671;DHT22;15077;49.704;9.908;2022-10-13T16:41:36;19.50;64.30
27671;DHT22;15077;49.704;9.908;2022-10-13T16:44:03;19.50;64.20
27671;DHT22;15077;49.704;9.908;2022-10-13T16:46:29;19.40;64.20
27671;DHT22;15077;49.704;9.908;2022-10-13T16:48:55;19.40;64.30
27671;DHT22;15077;49.704;9.908;2022-10-13T16:51:21;19.40;64.30
27671;DHT22;15077;49.704;9.908;2022-10-13T16:53:52;19.40;64.30
27671;DHT22;15077;49.704;9.908;2022-10-13T16:56:20;19.40;64.30
27671;DHT22;15077;49.704;9.908;2022-10-13T16:58:47;19.30;64.20
27671;DHT22;15077;49.704;9.908;2022-10-13T17:01:14;19.30;64.40
27671;DHT22;15077;49.704;9.908;2022-10-13T17:03:41;19.30;64.20
27671;DHT22;15077;49.704;9.908;2022-10-13T17:06:08;19.30;64.20
27671;DHT22;15077;49.704;9.908;2022-10-13T17:08:34;19.30;64.30
27671;DHT22;15077;49.704;9.908;2022-10-13T17:11:02;19.30;64.20
27671;DHT22;15077;49.704;9.908;2022-10-13T17:13:29;19.30;64.20
27671;DHT22;15077;49.704;9.908;2022-10-13T17:15:56;19.30;64.20
27671;DHT22;15077;49.704;9.908;2022-10-13T17:18:23;19.30;64.20
27671;DHT22;15077;49.704;9.908;2022-10-13T17:23:35;19.30;64.20
27671;DHT22;15077;49.704;9.908;2022-10-13T17:26:02;19.30;64.20
27671;DHT22;15077;49.704;9.908;2022-10-13T17:28:30;19.20;64.20
27671;DHT22;15077;49.704;9.908;2022-10-13T17:30:57;19.20;64.20
27671;DHT22;15077;49.704;9.908;2022-10-13T17:33:25;19.20;64.20
27671;DHT22;15077;49.704;9.908;2022-10-13T17:35:56;19.20;64.20